Impacts TAF Board INFO
FOR SITUATIONAL AWARENESS. NOT TO BE USED FOR FLIGHT PLANNING PURPOSES.
IDs:

KCLE - Cleveland/Hopkins In, OH, US

Issued at 1132 UTC 16 Jan 2018
Updated at 1455 UTC 16 Jan 2018
Potential Impact None Slight Moderate High
Time1451Z 16/15Z 16/16Z 16/17Z 16/18Z 16/19Z 16/20Z 16/21Z 16/22Z 16/23Z 17/00Z 17/01Z 17/02Z 17/03Z>>
Type OBS PRVL
  [TEMP]  
PRVL
  [TEMP]  
PRVL
  [TEMP]  
PRVL PRVL PRVL PRVL PRVL PRVL PRVL PRVL PRVL PRVL
VIS 9 >6 >6 >6 >6 >6 >6 >6 >6 >6 >6 >6 >6 >6
CIG 16 15
  [20]  
15
  [20]  
15
  [20]  
25 25 25 25 25 25 25 25 25 25
Cover BKN OVC
  [OVC]  
OVC
  [OVC]  
OVC
  [OVC]  
BKN BKN BKN BKN BKN BKN BKN BKN BKN BKN
FltCat MVFR MVFR
  [MVFR]  
MVFR
  [MVFR]  
MVFR
  [MVFR]  
MVFR MVFR MVFR MVFR MVFR MVFR MVFR MVFR MVFR MVFR
WX -- -SN
  [--]  
-SN
  [--]  
-SN
  [--]  
-- -- -- -- -- -- -- -- -- --
WDir 200 240
[240]
240
[240]
240
[240]
240 240 240 240 240 240 240 240 240 240
WSpd 10 7
  [7]  
7
  [7]  
7
  [7]  
8 8 8 8 8 8 8 8 8 8
WGst -- --
  [--]  
--
  [--]  
--
  [--]  
-- -- -- -- -- -- -- -- -- --

Raw TAF
KCLE 161132Z 1612/1718 24007KT P6SM -SN OVC015
  TEMPO 1615/1618 SCT015 OVC020
  FM161800 24008KT P6SM BKN025
  FM170600 23006KT P6SM BKN015
  FM171400 23006KT P6SM BKN020
  FM171600 24008KT P6SM BKN035


Raw METAR
KCLE 161451Z 20010KT 9SM BKN016 M14/M18 A3046 RMK AO2 SLP329 60000 T11391178 53016
KCLE 161443Z 22010KT 9SM BKN016 M14/M18 A3046 RMK AO2 T11391178
KCLE 161351Z 24012KT 10SM FEW026 BKN032 M13/M17 A3044 RMK AO2 SNE17 SLP321 P0000 T11331172
KCLE 161342Z 23013KT 10SM SCT026 BKN032 M13/M17 A3043 RMK AO2 SNE17 P0000 T11331172
KCLE 161251Z 24013KT 9SM -SN OVC021 M12/M17 A3043 RMK AO2 SLP319 P0000 T11221167
KCLE 161151Z 24014KT 8SM -SN OVC016 M10/M13 A3041 RMK AO2 SLP312 4/003 P0000 60000 70006 T11001133 11050 21100 53021
KCLE 161141Z 25012KT 8SM -SN OVC015 M10/M13 A3041 RMK AO2 P0000 T11001133

METAR Board
Radar Display
Forecast Discussion

FOR SITUATIONAL AWARENESS. NOT TO BE USED FOR FLIGHT PLANNING PURPOSES.